PWSweather.com
Personal Weather Stations
Station Observations
KTXPLANO60
Highlands Of Russell Park, Plano, TX 75025

Highlands Of Russell ParkPlano, TX 75025

Lat: 33.10431671, Lon: -96.75176239

Elevation: 761

Station Type: Davis Wireless VP2 Plus

http://www.planoweather.com

Latest ConditionsUpdated 11:20:01 AM CDT Thursday, Mar 23, 2017
Currently Today's Max Today's Min Today's Average
Temperature 73.1°F22.8°C 73.1°F22.8°C 63.2°F17.3°C 65.6°F18.7°C
Dew Point 60.6°F15.9°C 61.8°F16.6°C 59.2°F15.1°C 60.5°F15.8°C
Winds 8.1 mph S13.0 kmh S 16.1 mph S25.9 kmh S - 7.3 mph 11.7 kmh
Wind Gusts 15.0 mph24.1 kmh 26.5 mph42.6 kmh - -
Humidity 65% 89% 65% 84%
Pressure 30.00 in1015.9 mb 30.02 in1016.6 mb 29.96 in1014.6 mb -
Hour Temp Dew Point Humidity Winds Wind Gusts Pressure Precip Precip Rate Daily Precip Total
11:20 AM 73.1°F22.8°C 60.6°F15.9°C 65% 8.1 mph S13.0 kmh S 15.0 mph24.1 kmh 30.00 in1015.9 mb - 0.00 in0.0 mm 0.00 in0.0 mm
11:10 AM 72.5°F22.5°C 60.1°F15.6°C 65% 9.2 mph S14.8 kmh S 15.0 mph24.1 kmh 30.00 in1015.9 mb - 0.00 in0.0 mm 0.00 in0.0 mm
11:00 AM 72.2°F22.3°C 61.0°F16.1°C 68% 15.0 mph S24.1 kmh S 25.3 mph40.7 kmh 30.00 in1015.9 mb - 0.00 in0.0 mm 0.00 in0.0 mm
10:50 AM 71.4°F21.9°C 60.7°F15.9°C 69% 16.1 mph SSW25.9 kmh SSW 21.9 mph35.2 kmh 30.00 in1015.9 mb - 0.00 in0.0 mm 0.00 in0.0 mm
10:40 AM 70.6°F21.4°C 60.8°F16.0°C 71% 16.1 mph S25.9 kmh S 23.0 mph37.0 kmh 30.00 in1015.9 mb - 0.00 in0.0 mm 0.00 in0.0 mm
10:30 AM 70.3°F21.3°C 60.8°F16.0°C 72% 10.4 mph S16.7 kmh S 19.6 mph31.5 kmh 29.99 in1015.6 mb - 0.00 in0.0 mm 0.00 in0.0 mm
10:20 AM 69.4°F20.8°C 60.8°F16.0°C 74% 12.7 mph S20.4 kmh S 18.4 mph29.6 kmh 29.99 in1015.6 mb - 0.00 in0.0 mm 0.00 in0.0 mm
10:10 AM 68.9°F20.5°C 61.1°F16.2°C 76% 10.4 mph S16.7 kmh S 18.4 mph29.6 kmh 29.99 in1015.6 mb - 0.00 in0.0 mm 0.00 in0.0 mm
10:00 AM 68.6°F20.3°C 61.5°F16.4°C 78% 12.7 mph S20.4 kmh S 19.6 mph31.5 kmh 29.99 in1015.6 mb - 0.00 in0.0 mm 0.00 in0.0 mm
09:50 AM 67.7°F19.8°C 61.6°F16.4°C 81% 15.0 mph S24.1 kmh S 25.3 mph40.7 kmh 29.99 in1015.6 mb - 0.00 in0.0 mm 0.00 in0.0 mm
09:40 AM 66.9°F19.4°C 60.9°F16.1°C 81% 12.7 mph S20.4 kmh S 26.5 mph42.6 kmh 29.98 in1015.2 mb - 0.00 in0.0 mm 0.00 in0.0 mm
09:30 AM 66.7°F19.3°C 61.4°F16.3°C 83% 15.0 mph SSE24.1 kmh SSE 19.6 mph31.5 kmh 29.98 in1015.2 mb - 0.00 in0.0 mm 0.00 in0.0 mm
09:20 AM 65.9°F18.8°C 60.9°F16.1°C 84% 10.4 mph S16.7 kmh S 17.3 mph27.8 kmh 29.98 in1015.2 mb - 0.00 in0.0 mm 0.00 in0.0 mm
09:10 AM 65.3°F18.5°C 60.7°F15.9°C 85% 10.4 mph S16.7 kmh S 11.5 mph18.5 kmh 29.98 in1015.2 mb - 0.00 in0.0 mm 0.00 in0.0 mm
09:00 AM 65.1°F18.4°C 60.8°F16.0°C 86% 12.7 mph S20.4 kmh S 18.4 mph29.6 kmh 29.98 in1015.2 mb - 0.00 in0.0 mm 0.00 in0.0 mm
08:50 AM 64.9°F18.3°C 60.6°F15.9°C 86% 10.4 mph S16.7 kmh S 17.3 mph27.8 kmh 29.98 in1015.2 mb - 0.00 in0.0 mm 0.00 in0.0 mm
08:40 AM 64.6°F18.1°C 60.6°F15.9°C 87% 15.0 mph S24.1 kmh S 20.7 mph33.3 kmh 29.98 in1015.2 mb - 0.00 in0.0 mm 0.00 in0.0 mm
08:30 AM 64.5°F18.1°C 60.5°F15.8°C 87% 11.5 mph S18.5 kmh S 13.8 mph22.2 kmh 29.98 in1015.2 mb - 0.00 in0.0 mm 0.00 in0.0 mm
08:20 AM 64.5°F18.1°C 60.9°F16.1°C 88% 9.2 mph S14.8 kmh S 12.7 mph20.4 kmh 29.98 in1015.2 mb - 0.00 in0.0 mm 0.00 in0.0 mm
08:10 AM 64.5°F18.1°C 60.9°F16.1°C 88% 13.8 mph S22.2 kmh S 21.9 mph35.2 kmh 29.98 in1015.2 mb - 0.00 in0.0 mm 0.00 in0.0 mm
08:00 AM 64.4°F18.0°C 60.8°F16.0°C 88% 8.1 mph SSE13.0 kmh SSE 15.0 mph24.1 kmh 29.97 in1014.9 mb - 0.00 in0.0 mm 0.00 in0.0 mm
07:50 AM 64.4°F18.0°C 60.8°F16.0°C 88% 12.7 mph SSE20.4 kmh SSE 15.0 mph24.1 kmh 29.97 in1014.9 mb - 0.00 in0.0 mm 0.00 in0.0 mm
07:40 AM 64.4°F18.0°C 60.8°F16.0°C 88% 11.5 mph S18.5 kmh S 15.0 mph24.1 kmh 29.97 in1014.9 mb - 0.00 in0.0 mm 0.00 in0.0 mm
07:30 AM 64.4°F18.0°C 60.8°F16.0°C 88% 8.1 mph S13.0 kmh S 13.8 mph22.2 kmh 29.97 in1014.9 mb - 0.00 in0.0 mm 0.00 in0.0 mm
07:20 AM 64.1°F17.8°C 60.5°F15.8°C 88% 10.4 mph S16.7 kmh S 19.6 mph31.5 kmh 29.97 in1014.9 mb - 0.00 in0.0 mm 0.00 in0.0 mm
07:10 AM 64.0°F17.8°C 60.4°F15.8°C 88% 5.8 mph S9.3 kmh S 9.2 mph14.8 kmh 29.97 in1014.9 mb - 0.00 in0.0 mm 0.00 in0.0 mm
07:00 AM 63.8°F17.7°C 60.5°F15.8°C 89% 4.6 mph SSE7.4 kmh SSE 10.4 mph16.7 kmh 29.96 in1014.6 mb - 0.00 in0.0 mm 0.00 in0.0 mm
06:50 AM 63.7°F17.6°C 60.4°F15.8°C 89% 9.2 mph SSE14.8 kmh SSE 15.0 mph24.1 kmh 29.96 in1014.6 mb - 0.00 in0.0 mm 0.00 in0.0 mm
06:40 AM 63.6°F17.6°C 60.3°F15.7°C 89% 9.2 mph S14.8 kmh S 11.5 mph18.5 kmh 29.97 in1014.9 mb - 0.00 in0.0 mm 0.00 in0.0 mm
06:30 AM 63.4°F17.4°C 60.1°F15.6°C 89% 9.2 mph S14.8 kmh S 11.5 mph18.5 kmh 29.97 in1014.9 mb - 0.00 in0.0 mm 0.00 in0.0 mm
06:20 AM 63.3°F17.4°C 60.0°F15.6°C 89% 9.2 mph S14.8 kmh S 13.8 mph22.2 kmh 29.97 in1014.9 mb - 0.00 in0.0 mm 0.00 in0.0 mm
06:10 AM 63.2°F17.3°C 59.9°F15.5°C 89% 8.1 mph S13.0 kmh S 15.0 mph24.1 kmh 29.97 in1014.9 mb - 0.00 in0.0 mm 0.00 in0.0 mm
06:00 AM 63.2°F17.3°C 59.9°F15.5°C 89% 8.1 mph S13.0 kmh S 15.0 mph24.1 kmh 29.97 in1014.9 mb - 0.00 in0.0 mm 0.00 in0.0 mm
05:50 AM 63.4°F17.4°C 60.1°F15.6°C 89% 8.1 mph SSE13.0 kmh SSE 17.3 mph27.8 kmh 29.97 in1014.9 mb - 0.00 in0.0 mm 0.00 in0.0 mm
05:40 AM 63.4°F17.4°C 60.1°F15.6°C 89% 11.5 mph S18.5 kmh S 18.4 mph29.6 kmh 29.97 in1014.9 mb - 0.00 in0.0 mm 0.00 in0.0 mm
05:30 AM 63.4°F17.4°C 60.1°F15.6°C 89% 6.9 mph S11.1 kmh S 15.0 mph24.1 kmh 29.97 in1014.9 mb - 0.00 in0.0 mm 0.00 in0.0 mm
05:20 AM 63.5°F17.5°C 59.9°F15.5°C 88% 6.9 mph S11.1 kmh S 10.4 mph16.7 kmh 29.97 in1014.9 mb - 0.00 in0.0 mm 0.00 in0.0 mm
05:10 AM 63.6°F17.6°C 60.0°F15.6°C 88% 4.6 mph S7.4 kmh S 6.9 mph11.1 kmh 29.96 in1014.6 mb - 0.00 in0.0 mm 0.00 in0.0 mm
05:00 AM 63.8°F17.7°C 60.2°F15.7°C 88% 4.6 mph S7.4 kmh S 11.5 mph18.5 kmh 29.97 in1014.9 mb - 0.00 in0.0 mm 0.00 in0.0 mm
04:50 AM 63.8°F17.7°C 59.9°F15.5°C 87% 5.8 mph S9.3 kmh S 10.4 mph16.7 kmh 29.97 in1014.9 mb - 0.00 in0.0 mm 0.00 in0.0 mm
04:40 AM 63.8°F17.7°C 59.9°F15.5°C 87% 5.8 mph S9.3 kmh S 11.5 mph18.5 kmh 29.97 in1014.9 mb - 0.00 in0.0 mm 0.00 in0.0 mm
04:30 AM 63.7°F17.6°C 59.8°F15.4°C 87% 4.6 mph S7.4 kmh S 13.8 mph22.2 kmh 29.98 in1015.2 mb - 0.00 in0.0 mm 0.00 in0.0 mm
04:20 AM 63.5°F17.5°C 59.6°F15.3°C 87% 3.5 mph SSE5.6 kmh SSE 12.7 mph20.4 kmh 29.98 in1015.2 mb - 0.00 in0.0 mm 0.00 in0.0 mm
04:10 AM 63.4°F17.4°C 59.5°F15.3°C 87% 2.3 mph SSE3.7 kmh SSE 4.6 mph7.4 kmh 29.98 in1015.2 mb - 0.00 in0.0 mm 0.00 in0.0 mm
04:00 AM 63.5°F17.5°C 59.2°F15.1°C 86% 2.3 mph SSE3.7 kmh SSE 3.5 mph5.6 kmh 29.98 in1015.2 mb - 0.00 in0.0 mm 0.00 in0.0 mm
03:50 AM 63.6°F17.6°C 59.3°F15.2°C 86% 1.2 mph SSE1.9 kmh SSE 3.5 mph5.6 kmh 29.98 in1015.2 mb - 0.00 in0.0 mm 0.00 in0.0 mm
03:40 AM 63.8°F17.7°C 59.5°F15.3°C 86% 3.5 mph SSE5.6 kmh SSE 5.8 mph9.3 kmh 29.98 in1015.2 mb - 0.00 in0.0 mm 0.00 in0.0 mm
03:30 AM 64.1°F17.8°C 59.8°F15.4°C 86% 3.5 mph SE5.6 kmh SE 5.8 mph9.3 kmh 29.98 in1015.2 mb - 0.00 in0.0 mm 0.00 in0.0 mm
03:20 AM 64.3°F17.9°C 59.7°F15.4°C 85% 2.3 mph SE3.7 kmh SE 4.6 mph7.4 kmh 29.99 in1015.6 mb - 0.00 in0.0 mm 0.00 in0.0 mm
03:10 AM 64.6°F18.1°C 60.0°F15.6°C 85% 2.3 mph SSE3.7 kmh SSE 4.6 mph7.4 kmh 29.99 in1015.6 mb - 0.00 in0.0 mm 0.00 in0.0 mm
03:00 AM 64.8°F18.2°C 60.2°F15.7°C 85% 1.2 mph SE1.9 kmh SE 3.5 mph5.6 kmh 29.99 in1015.6 mb - 0.00 in0.0 mm 0.00 in0.0 mm
02:50 AM 64.9°F18.3°C 60.3°F15.7°C 85% 1.2 mph SSE1.9 kmh SSE 3.5 mph5.6 kmh 29.99 in1015.6 mb - 0.00 in0.0 mm 0.00 in0.0 mm
02:40 AM 65.0°F18.3°C 60.4°F15.8°C 85% Calm Calm 2.3 mph3.7 kmh 29.99 in1015.6 mb - 0.00 in0.0 mm 0.00 in0.0 mm
02:30 AM 65.0°F18.3°C 60.4°F15.8°C 85% 4.6 mph SE7.4 kmh SE 6.9 mph11.1 kmh 29.99 in1015.6 mb - 0.00 in0.0 mm 0.00 in0.0 mm
02:20 AM 65.2°F18.4°C 60.6°F15.9°C 85% 2.3 mph SSE3.7 kmh SSE 3.5 mph5.6 kmh 29.99 in1015.6 mb - 0.00 in0.0 mm 0.00 in0.0 mm
02:10 AM 65.4°F18.6°C 60.4°F15.8°C 84% 1.2 mph SE1.9 kmh SE 3.5 mph5.6 kmh 30.00 in1015.9 mb - 0.00 in0.0 mm 0.00 in0.0 mm
02:00 AM 65.4°F18.6°C 60.8°F16.0°C 85% 3.5 mph SSE5.6 kmh SSE 6.9 mph11.1 kmh 30.00 in1015.9 mb - 0.00 in0.0 mm 0.00 in0.0 mm
01:50 AM 65.4°F18.6°C 60.8°F16.0°C 85% 4.6 mph SE7.4 kmh SE 8.1 mph13.0 kmh 30.00 in1015.9 mb - 0.00 in0.0 mm 0.00 in0.0 mm
01:40 AM 65.6°F18.7°C 61.0°F16.1°C 85% 2.3 mph SE3.7 kmh SE 5.8 mph9.3 kmh 30.00 in1015.9 mb - 0.00 in0.0 mm 0.00 in0.0 mm
01:30 AM 65.7°F18.7°C 61.1°F16.2°C 85% 2.3 mph SE3.7 kmh SE 6.9 mph11.1 kmh 30.00 in1015.9 mb - 0.00 in0.0 mm 0.00 in0.0 mm
01:20 AM 65.8°F18.8°C 60.8°F16.0°C 84% 3.5 mph SSE5.6 kmh SSE 9.2 mph14.8 kmh 30.00 in1015.9 mb - 0.00 in0.0 mm 0.00 in0.0 mm
01:10 AM 66.0°F18.9°C 61.0°F16.1°C 84% 4.6 mph SE7.4 kmh SE 5.8 mph9.3 kmh 30.00 in1015.9 mb - 0.00 in0.0 mm 0.00 in0.0 mm
01:00 AM 66.3°F19.1°C 61.3°F16.3°C 84% 5.8 mph SE9.3 kmh SE 5.8 mph9.3 kmh 30.00 in1015.9 mb - 0.00 in0.0 mm 0.00 in0.0 mm
12:50 AM 66.5°F19.2°C 61.2°F16.2°C 83% 3.5 mph SE5.6 kmh SE 6.9 mph11.1 kmh 30.00 in1015.9 mb - 0.00 in0.0 mm 0.00 in0.0 mm
12:40 AM 66.7°F19.3°C 61.4°F16.3°C 83% 3.5 mph SE5.6 kmh SE 10.4 mph16.7 kmh 30.01 in1016.3 mb - 0.00 in0.0 mm 0.00 in0.0 mm
12:30 AM 67.0°F19.4°C 61.7°F16.5°C 83% 4.6 mph SE7.4 kmh SE 6.9 mph11.1 kmh 30.01 in1016.3 mb - 0.00 in0.0 mm 0.00 in0.0 mm
12:20 AM 67.2°F19.6°C 61.5°F16.4°C 82% 3.5 mph SE5.6 kmh SE 8.1 mph13.0 kmh 30.01 in1016.3 mb - 0.00 in0.0 mm 0.00 in0.0 mm
12:10 AM 67.5°F19.7°C 61.8°F16.6°C 82% 4.6 mph SE7.4 kmh SE 11.5 mph18.5 kmh 30.01 in1016.3 mb - 0.00 in0.0 mm 0.00 in0.0 mm
12:00 AM 67.8°F19.9°C 61.7°F16.5°C 81% 4.6 mph SE7.4 kmh SE 5.8 mph9.3 kmh 30.02 in1016.6 mb - 0.00 in0.0 mm 0.00 in0.0 mm